Time;durP1;ratioP1;P1;durP2;ratioP2;P2;SDS_P1;SDS_P2;PMS_P1;PMS_P2;Temp;Humidity;BMP_temperature;BMP_pressure;BME280_temperature;BME280_humidity;BME280_pressure;Samples;Min_cycle;Max_cycle;Signal;HPM_P1;HPM_P2
2023/08/03 00:02:20;;;;;;;0.93;0.28;;;;;;;23.40;53.18;98924.09;5055105;28;20043;-62
2023/08/03 00:04:46;;;;;;;1.95;0.52;;;;;;;23.44;52.73;98936.19;5054888;28;20044;-62
2023/08/03 00:07:12;;;;;;;1.75;0.60;;;;;;;23.49;52.20;98938.94;5055866;28;20069;-62
2023/08/03 00:09:39;;;;;;;4.53;0.47;;;;;;;23.49;52.64;98938.94;5054928;28;20123;-62
2023/08/03 00:12:06;;;;;;;1.98;0.30;;;;;;;23.47;52.25;98932.94;5056057;28;20116;-64
2023/08/03 00:14:31;;;;;;;0.60;0.30;;;;;;;23.42;52.54;98943.00;5054625;28;20059;-65
2023/08/03 00:16:56;;;;;;;1.23;0.35;;;;;;;23.39;52.96;98940.78;5055827;28;20033;-65
2023/08/03 00:19:22;;;;;;;4.50;0.50;;;;;;;23.28;53.15;98960.84;5054669;28;20431;-66
2023/08/03 00:21:47;;;;;;;3.88;0.82;;;;;;;23.16;52.67;98967.28;5054406;28;20032;-67
2023/08/03 00:24:12;;;;;;;1.42;0.32;;;;;;;23.06;53.76;98974.53;5054184;28;20037;-68
2023/08/03 00:26:38;;;;;;;2.38;0.32;;;;;;;22.99;53.62;98976.63;5054608;28;20385;-68
2023/08/03 00:29:03;;;;;;;2.97;0.80;;;;;;;22.94;53.96;98990.22;5054611;28;20515;-68
2023/08/03 00:31:29;;;;;;;1.08;0.70;;;;;;;22.88;54.01;98989.34;5055707;28;20037;-69
2023/08/03 00:33:54;;;;;;;3.05;0.47;;;;;;;22.80;53.94;98989.78;5055507;28;20028;-69
2023/08/03 00:36:19;;;;;;;2.85;0.88;;;;;;;22.78;54.37;98996.56;5054052;28;20043;-67
2023/08/03 00:38:45;;;;;;;0.88;0.63;;;;;;;22.76;54.55;98990.50;5054017;28;20497;-66
2023/08/03 00:41:10;;;;;;;1.83;0.40;;;;;;;22.75;54.33;98991.63;5054129;28;20047;-65
2023/08/03 00:43:36;;;;;;;3.80;0.47;;;;;;;22.74;55.10;99000.88;5054400;28;20033;-67
2023/08/03 00:46:01;;;;;;;1.85;0.60;;;;;;;22.78;54.51;98999.31;5053966;28;20435;-65
2023/08/03 00:48:27;;;;;;;5.38;0.40;;;;;;;22.79;54.77;99020.88;5036403;28;20104;-64
2023/08/03 00:50:52;;;;;;;4.22;0.70;;;;;;;22.80;54.27;99017.09;5052887;28;20032;-64
2023/08/03 00:53:18;;;;;;;4.88;1.10;;;;;;;22.79;54.67;99020.03;5053951;28;20052;-64
2023/08/03 00:55:43;;;;;;;2.88;1.23;;;;;;;22.77;55.22;99033.13;5054097;28;20108;-64
2023/08/03 00:58:08;;;;;;;2.92;1.63;;;;;;;22.76;54.39;99018.66;5038113;28;20117;-65
2023/08/03 01:00:34;;;;;;;2.65;0.73;;;;;;;22.80;54.67;99024.44;5034104;28;20029;-64
2023/08/03 01:02:59;;;;;;;14.80;2.15;;;;;;;22.77;55.36;99030.41;5033685;28;20119;-65
2023/08/03 01:05:26;;;;;;;2.03;0.82;;;;;;;22.79;55.35;99036.44;5032872;28;20179;-63
2023/08/03 01:07:52;;;;;;;7.35;1.05;;;;;;;22.81;55.12;99039.75;5034026;28;20038;-64
2023/08/03 01:10:17;;;;;;;2.05;0.52;;;;;;;22.80;54.45;99044.38;5033783;28;20037;-63
2023/08/03 01:12:42;;;;;;;5.30;0.60;;;;;;;22.81;55.02;99050.69;5033664;28;20524;-63
2023/08/03 01:15:08;;;;;;;3.28;0.80;;;;;;;22.82;54.80;99055.03;5033654;28;20067;-63
2023/08/03 01:17:34;;;;;;;2.67;0.70;;;;;;;22.88;54.93;99048.56;5016713;28;20112;-63
2023/08/03 01:19:59;;;;;;;4.10;1.33;;;;;;;22.85;55.07;99051.81;5017139;28;20519;-63
2023/08/03 01:22:26;;;;;;;4.90;0.85;;;;;;;22.90;55.49;99054.59;5033440;28;20048;-64
2023/08/03 01:24:51;;;;;;;2.58;0.80;;;;;;;22.94;55.32;99051.13;5033616;28;20088;-65
2023/08/03 01:27:16;;;;;;;5.30;1.13;;;;;;;22.92;55.36;99047.00;5034889;28;20452;-67
2023/08/03 01:29:42;;;;;;;1.73;0.50;;;;;;;22.90;54.77;99046.41;5034684;28;20033;-65
2023/08/03 01:32:08;;;;;;;2.08;0.60;;;;;;;22.92;54.41;99053.28;5034390;28;20033;-64
2023/08/03 01:34:33;;;;;;;6.20;0.85;;;;;;;22.92;54.48;99052.47;5016728;28;20056;-65
2023/08/03 01:36:59;;;;;;;2.45;0.68;;;;;;;22.90;54.74;99049.97;5033150;28;20041;-64
2023/08/03 01:39:24;;;;;;;1.67;0.68;;;;;;;22.93;54.44;99054.09;5033466;28;20468;-64
2023/08/03 01:41:50;;;;;;;5.60;1.42;;;;;;;22.94;55.26;99061.22;5033230;28;20091;-65
2023/08/03 01:44:23;;;;;;;4.75;0.60;;;;;;;22.92;55.41;99069.66;5016561;28;20065;-64
2023/08/03 01:46:50;;;;;;;3.63;0.90;;;;;;;22.90;54.72;99076.44;5016576;28;20060;-64
2023/08/03 01:49:15;;;;;;;3.08;0.68;;;;;;;22.91;54.91;99075.38;5033231;28;20030;-64
2023/08/03 01:51:41;;;;;;;3.17;1.13;;;;;;;22.89;55.03;99080.28;5032872;28;20117;-64
2023/08/03 01:54:07;;;;;;;2.85;0.95;;;;;;;22.89;55.10;99072.09;5032688;28;20021;-64
2023/08/03 01:56:32;;;;;;;1.65;0.57;;;;;;;22.90;55.35;99090.94;5032748;28;20033;-64
2023/08/03 01:58:58;;;;;;;6.93;1.02;;;;;;;22.92;55.39;99071.59;5033943;28;20029;-65
2023/08/03 02:01:24;;;;;;;3.35;0.60;;;;;;;22.95;54.98;99085.53;5034167;28;20087;-64
2023/08/03 02:03:49;;;;;;;0.77;0.40;;;;;;;22.99;55.19;99102.25;5033816;28;20408;-65
2023/08/03 02:06:14;;;;;;;1.55;0.60;;;;;;;23.00;54.84;99090.28;5032551;28;20108;-65
2023/08/03 02:08:40;;;;;;;4.47;0.70;;;;;;;22.99;54.20;99092.16;5033792;28;20040;-64
2023/08/03 02:11:05;;;;;;;2.28;0.60;;;;;;;23.01;54.21;99092.72;5032651;28;20572;-64
2023/08/03 02:13:30;;;;;;;2.05;0.60;;;;;;;23.02;54.31;99097.13;5032506;28;20037;-65
2023/08/03 02:15:56;;;;;;;4.30;0.63;;;;;;;23.03;54.73;99082.38;5049074;28;20505;-64
2023/08/03 02:18:21;;;;;;;3.25;0.55;;;;;;;23.06;54.91;99098.25;5033893;28;20044;-64
2023/08/03 02:20:47;;;;;;;3.95;0.70;;;;;;;23.10;54.52;99110.34;5033764;28;20025;-64
2023/08/03 02:23:12;;;;;;;2.95;0.65;;;;;;;23.12;54.08;99102.72;5033553;28;20501;-65
2023/08/03 02:25:38;;;;;;;2.85;0.77;;;;;;;23.18;54.10;99112.66;5033488;28;20034;-64
2023/08/03 02:28:03;;;;;;;2.20;0.63;;;;;;;23.24;54.51;99109.97;5032218;28;20065;-64
2023/08/03 02:30:30;;;;;;;3.17;0.80;;;;;;;23.29;53.98;99105.41;5032212;28;20517;-64
2023/08/03 02:32:56;;;;;;;1.50;0.60;;;;;;;23.34;53.55;99110.13;5033450;28;20029;-64
2023/08/03 02:35:21;;;;;;;2.80;0.50;;;;;;;23.38;53.74;99123.06;5033422;28;20029;-64
2023/08/03 02:37:47;;;;;;;2.00;0.30;;;;;;;23.45;53.51;99109.19;5015575;28;20455;-64
2023/08/03 02:40:12;;;;;;;3.13;0.55;;;;;;;23.48;53.69;99109.50;5032060;28;20029;-64
2023/08/03 02:42:38;;;;;;;2.67;0.60;;;;;;;23.52;53.50;99107.09;5031864;28;20033;-64
2023/08/03 02:45:04;;;;;;;3.10;0.47;;;;;;;23.55;54.09;99118.34;5032090;28;20382;-64
2023/08/03 02:47:30;;;;;;;0.30;0.15;;;;;;;23.54;53.77;99124.06;5032057;28;20045;-64
2023/08/03 02:49:55;;;;;;;0.60;0.40;;;;;;;23.56;52.75;99114.50;5031639;28;20037;-64
2023/08/03 02:52:20;;;;;;;1.88;0.45;;;;;;;23.57;53.56;99124.38;5031898;28;20116;-64
2023/08/03 02:54:46;;;;;;;0.45;0.30;;;;;;;23.57;53.65;99132.56;5031788;28;20029;-64
2023/08/03 02:57:11;;;;;;;1.15;0.30;;;;;;;23.62;52.87;99124.44;5032082;28;20498;-64
2023/08/03 02:59:36;;;;;;;3.78;0.68;;;;;;;23.62;53.61;99129.06;5033454;28;20085;-64
2023/08/03 03:02:02;;;;;;;0.32;0.30;;;;;;;23.66;53.30;99139.25;5033805;28;20037;-64
2023/08/03 03:04:28;;;;;;;1.63;0.60;;;;;;;23.65;53.52;99128.56;5032193;28;20030;-64
2023/08/03 03:06:53;;;;;;;1.00;0.40;;;;;;;23.63;53.08;99125.25;5034649;28;20049;-64
2023/08/03 03:09:18;;;;;;;0.90;0.22;;;;;;;23.65;52.68;99121.19;5036625;28;20167;-64
2023/08/03 03:11:44;;;;;;;1.88;0.28;;;;;;;23.66;52.76;99130.22;5037219;28;20550;-64
2023/08/03 03:14:09;;;;;;;5.72;0.50;;;;;;;23.65;52.93;99129.41;5035440;28;20405;-64
2023/08/03 03:16:34;;;;;;;3.60;0.50;;;;;;;23.68;53.54;99117.94;5040030;28;20053;-64
2023/08/03 03:19:00;;;;;;;2.47;0.30;;;;;;;23.69;52.91;99118.78;5034954;28;20064;-65
2023/08/03 03:21:25;;;;;;;2.83;0.40;;;;;;;23.71;52.76;99139.31;5033639;28;20504;-64
2023/08/03 03:23:51;;;;;;;2.55;0.47;;;;;;;23.71;53.39;99128.38;5033204;28;20599;-64
2023/08/03 03:26:16;;;;;;;2.20;0.40;;;;;;;23.69;52.86;99133.28;5031616;28;20034;-64
2023/08/03 03:28:42;;;;;;;1.25;0.25;;;;;;;23.70;52.87;99137.66;5031469;28;20511;-64
2023/08/03 03:31:07;;;;;;;2.63;0.38;;;;;;;23.67;52.60;99145.56;5032879;28;20034;-64
2023/08/03 03:33:33;;;;;;;0.57;0.50;;;;;;;23.68;52.32;99126.16;5032248;28;20121;-64
2023/08/03 03:35:58;;;;;;;2.05;0.20;;;;;;;23.66;53.19;99135.69;5031341;28;20121;-64
2023/08/03 03:38:24;;;;;;;3.83;0.60;;;;;;;23.69;52.88;99140.66;5032716;28;20444;-64
2023/08/03 03:40:49;;;;;;;2.03;0.38;;;;;;;23.69;52.87;99146.97;5032499;28;20026;-65
2023/08/03 03:43:14;;;;;;;0.93;0.40;;;;;;;23.68;52.71;99145.28;5032499;28;20037;-64
2023/08/03 03:45:40;;;;;;;1.00;0.38;;;;;;;23.66;52.58;99161.13;5032466;28;20120;-64
2023/08/03 03:48:05;;;;;;;2.30;0.32;;;;;;;23.69;52.53;99152.44;5032605;28;20417;-64
2023/08/03 03:50:31;;;;;;;1.02;0.30;;;;;;;23.68;52.87;99150.75;5032307;28;20033;-65
2023/08/03 03:52:56;;;;;;;2.20;0.40;;;;;;;23.69;53.04;99155.16;5031172;28;20048;-64
2023/08/03 03:55:22;;;;;;;1.17;0.45;;;;;;;23.70;52.29;99151.31;5030943;28;20037;-64
2023/08/03 03:57:47;;;;;;;2.08;0.20;;;;;;;23.69;52.99;99149.69;5030999;28;20033;-65
2023/08/03 04:00:13;;;;;;;3.90;0.82;;;;;;;23.68;53.04;99161.69;5032380;28;20120;-64
2023/08/03 04:02:38;;;;;;;0.80;0.30;;;;;;;23.65;52.46;99156.75;5031108;28;20033;-64
2023/08/03 04:05:04;;;;;;;1.10;0.40;;;;;;;23.68;52.95;99167.16;5032262;28;20034;-65
2023/08/03 04:07:29;;;;;;;2.65;0.50;;;;;;;23.68;53.12;99175.38;5032359;28;20037;-65
2023/08/03 04:09:54;;;;;;;1.30;0.30;;;;;;;23.69;52.20;99179.78;5031087;28;20041;-65
2023/08/03 04:12:20;;;;;;;3.28;0.45;;;;;;;23.71;52.42;99183.06;5014547;28;20124;-64
2023/08/03 04:14:46;;;;;;;1.48;0.32;;;;;;;23.72;52.60;99175.69;5032205;28;20037;-65
2023/08/03 04:17:11;;;;;;;0.82;0.10;;;;;;;23.75;52.82;99181.50;5031120;28;20034;-64
2023/08/03 04:19:36;;;;;;;1.40;0.35;;;;;;;23.77;52.60;99187.53;5031669;28;20029;-64
2023/08/03 04:22:02;;;;;;;1.05;0.30;;;;;;;23.80;52.63;99185.34;5030925;28;20041;-64
2023/08/03 04:24:28;;;;;;;0.63;0.32;;;;;;;23.78;52.49;99196.56;5050023;28;20037;-65
2023/08/03 04:26:54;;;;;;;2.83;0.63;;;;;;;23.84;52.37;99197.44;5035819;28;20064;-65
2023/08/03 04:29:19;;;;;;;2.97;0.40;;;;;;;23.82;52.24;99197.69;5034506;28;20460;-64
2023/08/03 04:31:44;;;;;;;2.08;0.38;;;;;;;23.86;52.29;99206.22;5034490;28;20057;-64
2023/08/03 04:34:10;;;;;;;3.40;0.20;;;;;;;23.86;52.13;99208.94;5035820;28;20033;-64
2023/08/03 04:36:35;;;;;;;0.68;0.43;;;;;;;23.86;52.28;99211.69;5035841;28;20038;-64
2023/08/03 04:39:00;;;;;;;2.83;0.32;;;;;;;23.84;52.18;99203.75;5035909;28;20034;-64
2023/08/03 04:41:26;;;;;;;2.95;0.28;;;;;;;23.84;52.60;99209.22;5034945;28;20034;-64
2023/08/03 04:43:51;;;;;;;2.50;0.30;;;;;;;23.82;52.01;99205.91;5036013;28;20038;-64
2023/08/03 04:46:17;;;;;;;1.60;0.30;;;;;;;23.78;52.23;99197.38;5034994;28;20072;-64
2023/08/03 04:48:43;;;;;;;0.52;0.30;;;;;;;23.76;52.24;99224.16;5035969;28;20493;-63
2023/08/03 04:51:08;;;;;;;1.00;0.40;;;;;;;23.72;52.85;99216.72;5035124;28;20038;-64
2023/08/03 04:53:34;;;;;;;1.48;0.20;;;;;;;23.71;52.34;99210.41;5034813;28;20378;-64
2023/08/03 04:55:59;;;;;;;0.40;0.10;;;;;;;23.69;52.42;99219.97;5035019;28;20100;-63
2023/08/03 04:58:24;;;;;;;1.10;0.10;;;;;;;23.68;53.10;99227.31;5036715;28;20049;-64
2023/08/03 05:00:50;;;;;;;1.05;0.32;;;;;;;23.64;52.45;99222.63;5037267;28;20030;-64
2023/08/03 05:03:15;;;;;;;2.45;0.40;;;;;;;23.59;52.37;99237.03;5018572;28;20061;-64
2023/08/03 05:05:41;;;;;;;0.85;0.30;;;;;;;23.55;52.92;99233.16;5013876;28;20037;-63
2023/08/03 05:08:06;;;;;;;0.73;0.40;;;;;;;23.52;53.50;99235.56;5015099;28;20046;-64
2023/08/03 05:10:32;;;;;;;3.17;0.30;;;;;;;23.48;52.97;99235.25;5013925;28;20037;-64
2023/08/03 05:12:57;;;;;;;2.50;0.40;;;;;;;23.46;53.43;99251.06;5012843;28;20041;-64
2023/08/03 05:15:22;;;;;;;0.93;0.20;;;;;;;23.46;53.49;99250.25;5015223;28;20030;-64
2023/08/03 05:17:49;;;;;;;0.85;0.25;;;;;;;23.44;52.88;99247.78;5013974;28;20026;-64
2023/08/03 05:20:15;;;;;;;1.15;0.38;;;;;;;23.41;53.06;99251.00;5015068;28;20037;-64
2023/08/03 05:22:40;;;;;;;4.10;0.25;;;;;;;23.40;53.29;99264.91;5014774;28;20406;-66
2023/08/03 05:25:06;;;;;;;1.15;0.73;;;;;;;23.36;53.27;99267.31;5029806;28;20120;-66
2023/08/03 05:27:31;;;;;;;3.70;0.50;;;;;;;23.31;53.78;99260.94;5013522;28;20104;-66
2023/08/03 05:29:58;;;;;;;3.28;0.40;;;;;;;23.22;53.11;99260.53;5014563;28;20436;-69
2023/08/03 05:32:26;;;;;;;1.13;0.38;;;;;;;23.13;53.23;99256.53;5030150;28;20467;-65
2023/08/03 05:34:52;;;;;;;2.58;0.55;;;;;;;23.07;53.78;99257.53;5014412;28;20540;-67
2023/08/03 05:37:18;;;;;;;5.43;0.55;;;;;;;23.04;53.51;99271.69;5014913;28;20022;-67
2023/08/03 05:39:43;;;;;;;5.40;0.45;;;;;;;23.01;54.38;99274.91;5013110;28;20022;-65
2023/08/03 05:42:12;;;;;;;2.83;0.40;;;;;;;22.94;54.75;99275.09;5014299;28;20029;-67
2023/08/03 05:44:38;;;;;;;0.57;0.38;;;;;;;22.86;54.48;99266.47;5013336;28;20017;-67
2023/08/03 05:47:05;;;;;;;2.17;0.40;;;;;;;22.76;54.49;99271.75;5013273;28;20076;-65
2023/08/03 05:49:30;;;;;;;0.70;0.30;;;;;;;22.73;54.89;99274.97;5029890;28;20405;-65
2023/08/03 05:51:56;;;;;;;2.50;0.55;;;;;;;22.65;54.72;99286.28;5029602;28;20030;-68
2023/08/03 05:54:21;;;;;;;1.85;0.50;;;;;;;22.58;55.02;99287.22;5029621;28;20061;-66
2023/08/03 05:56:47;;;;;;;4.35;0.52;;;;;;;22.55;54.24;99304.13;5029705;28;20056;-68
2023/08/03 05:59:20;;;;;;;0.50;0.20;;;;;;;22.50;54.74;99300.47;5029500;28;20025;-68
2023/08/03 06:01:50;;;;;;;3.72;0.60;;;;;;;22.45;55.76;99300.34;5012864;28;20097;-68
2023/08/03 06:04:16;;;;;;;1.23;0.80;;;;;;;22.45;55.96;99308.53;5012844;28;20485;-65
2023/08/03 06:06:42;;;;;;;4.13;0.50;;;;;;;22.40;55.02;99309.28;5012845;28;20049;-71
2023/08/03 06:09:11;;;;;;;3.70;0.52;;;;;;;22.37;55.38;99317.09;5012952;28;20402;-68
2023/08/03 06:11:37;;;;;;;0.43;0.32;;;;;;;22.32;55.85;99317.84;5014652;28;20037;-68
2023/08/03 06:14:02;;;;;;;4.68;0.63;;;;;;;22.32;55.60;99327.94;5013007;28;20087;-68
2023/08/03 06:16:27;;;;;;;1.05;0.43;;;;;;;22.30;55.71;99328.19;5029774;28;20389;-65
2023/08/03 06:18:55;;;;;;;2.85;0.43;;;;;;;22.29;56.39;99331.13;5011790;28;20092;-70
2023/08/03 06:21:23;;;;;;;0.95;0.40;;;;;;;22.26;55.76;99340.63;5029196;28;20038;-68
2023/08/03 06:23:51;;;;;;;4.63;0.43;;;;;;;22.28;56.49;99346.66;5014073;28;20564;-68
2023/08/03 06:26:18;;;;;;;2.38;0.47;;;;;;;22.30;56.01;99352.72;5029279;28;20188;-69
2023/08/03 06:28:45;;;;;;;2.55;0.50;;;;;;;22.33;56.74;99354.97;5014256;28;20034;-70
2023/08/03 06:31:13;;;;;;;3.15;0.50;;;;;;;22.32;56.54;99368.84;5014269;28;20498;-68
2023/08/03 06:33:39;;;;;;;0.85;0.68;;;;;;;22.33;56.25;99365.91;5029427;28;20034;-68
2023/08/03 06:36:05;;;;;;;5.53;0.47;;;;;;;22.34;56.12;99366.69;5029397;28;20405;-68
2023/08/03 06:38:32;;;;;;;3.00;0.43;;;;;;;22.34;56.52;99378.44;5029545;28;20459;-67
2023/08/03 06:40:58;;;;;;;3.70;0.82;;;;;;;22.35;56.67;99393.75;5014185;28;20033;-67
2023/08/03 06:43:23;;;;;;;2.67;0.90;;;;;;;22.38;57.05;99406.09;5029769;28;20034;-67
2023/08/03 06:45:49;;;;;;;1.23;0.45;;;;;;;22.42;56.67;99419.00;5011492;28;20033;-66
2023/08/03 06:48:15;;;;;;;1.42;0.43;;;;;;;22.45;56.48;99407.63;5029009;28;20506;-66
2023/08/03 06:50:40;;;;;;;0.82;0.50;;;;;;;22.54;56.75;99419.81;5012099;28;20033;-67
2023/08/03 06:53:06;;;;;;;1.50;0.30;;;;;;;22.67;56.86;99426.13;5013652;28;20034;-67
2023/08/03 06:55:31;;;;;;;3.58;0.60;;;;;;;22.73;56.25;99420.50;5013066;28;20042;-66
2023/08/03 06:57:57;;;;;;;0.90;0.35;;;;;;;22.93;56.45;99422.81;5011909;28;20037;-66
2023/08/03 07:00:28;;;;;;;1.55;0.43;;;;;;;23.18;56.13;99423.28;5012236;28;20037;-66
2023/08/03 07:02:54;;;;;;;0.77;0.63;;;;;;;23.44;55.33;99428.19;5011884;28;20065;-67
2023/08/03 07:05:20;;;;;;;0.47;0.43;;;;;;;23.59;55.78;99420.22;5011837;28;20050;-66
2023/08/03 07:07:46;;;;;;;1.30;0.52;;;;;;;23.84;55.50;99421.75;5013322;28;20092;-65
2023/08/03 07:10:11;;;;;;;5.15;0.45;;;;;;;24.03;55.63;99431.34;5028350;28;20084;-66
2023/08/03 07:12:37;;;;;;;1.60;0.40;;;;;;;24.16;55.33;99441.94;5011923;28;20037;-66
2023/08/03 07:15:04;;;;;;;0.47;0.30;;;;;;;24.16;55.70;99444.69;5028321;28;20053;-64
2023/08/03 07:17:30;;;;;;;1.80;0.25;;;;;;;24.18;55.19;99437.88;5028153;28;20030;-63
2023/08/03 07:19:55;;;;;;;1.98;0.30;;;;;;;24.24;55.30;99449.72;5028222;28;20041;-65
2023/08/03 07:22:21;;;;;;;1.25;0.43;;;;;;;24.37;55.49;99463.09;5028233;28;20042;-63
2023/08/03 07:24:47;;;;;;;0.95;0.47;;;;;;;24.58;55.51;99461.44;5011707;28;20072;-64
2023/08/03 07:27:12;;;;;;;8.35;1.42;;;;;;;24.59;55.19;99469.41;4995270;28;20091;-63
2023/08/03 07:29:38;;;;;;;1.38;0.22;;;;;;;24.61;55.38;99467.25;5028478;28;20041;-64
2023/08/03 07:32:03;;;;;;;6.65;0.68;;;;;;;24.62;55.64;99463.41;5028240;28;20124;-64
2023/08/03 07:34:29;;;;;;;1.30;0.30;;;;;;;24.57;54.71;99482.50;5028307;28;20034;-63
2023/08/03 07:36:55;;;;;;;1.35;0.63;;;;;;;24.54;54.67;99480.28;5011886;28;20034;-63
2023/08/03 07:39:21;;;;;;;0.70;0.32;;;;;;;24.50;54.42;99481.03;5011604;28;20030;-64
2023/08/03 07:41:46;;;;;;;1.60;0.40;;;;;;;24.45;55.08;99490.03;5011570;28;20048;-64
2023/08/03 07:44:11;;;;;;;3.70;0.70;;;;;;;24.43;54.70;99491.34;5012894;28;20517;-63
2023/08/03 07:46:37;;;;;;;4.38;0.50;;;;;;;24.40;54.89;99492.66;5027881;28;20121;-64
2023/08/03 07:49:02;;;;;;;0.88;0.55;;;;;;;24.41;54.88;99497.06;5012715;28;20026;-63
2023/08/03 07:51:27;;;;;;;1.92;0.30;;;;;;;24.48;54.37;99495.00;5027849;28;20042;-65
2023/08/03 07:53:53;;;;;;;0.68;0.30;;;;;;;24.52;54.70;99500.78;5012785;28;20405;-65
2023/08/03 07:56:20;;;;;;;7.18;0.45;;;;;;;24.53;54.36;99508.75;5011292;28;20049;-65
2023/08/03 07:58:46;;;;;;;1.42;0.60;;;;;;;24.59;54.67;99507.75;5031354;28;20044;-65
2023/08/03 08:01:12;;;;;;;0.70;0.28;;;;;;;24.65;54.28;99514.94;5015121;28;20084;-63
2023/08/03 08:03:38;;;;;;;1.08;0.60;;;;;;;24.71;54.51;99521.31;5015249;28;20045;-63
2023/08/03 08:06:15;;;;;;;2.67;0.47;;;;;;;24.72;53.80;99523.81;5031710;28;20046;-63
2023/08/03 08:08:40;;;;;;;0.98;0.32;;;;;;;24.71;54.07;99522.16;5031387;28;20121;-63
2023/08/03 08:11:07;;;;;;;1.52;0.50;;;;;;;24.71;54.08;99532.25;5015170;28;20516;-63
2023/08/03 08:13:32;;;;;;;3.28;0.52;;;;;;;24.74;53.70;99537.25;5031338;28;20498;-63
2023/08/03 08:16:02;;;;;;;4.90;0.35;;;;;;;24.81;53.70;99538.78;5016210;28;20099;-65
2023/08/03 08:18:29;;;;;;;1.63;0.40;;;;;;;24.94;53.31;99533.97;5031482;28;20069;-64
2023/08/03 08:20:56;;;;;;;2.55;0.40;;;;;;;24.92;53.37;99549.84;5016208;28;20112;-63
2023/08/03 08:23:21;;;;;;;1.70;0.50;;;;;;;24.89;53.69;99559.41;5031476;28;20033;-63
2023/08/03 08:25:47;;;;;;;3.38;0.60;;;;;;;24.93;53.38;99559.75;5031396;28;20038;-65
2023/08/03 08:28:12;;;;;;;2.40;0.50;;;;;;;25.00;53.60;99565.84;5031338;28;20045;-64
2023/08/03 08:30:37;;;;;;;3.30;0.68;;;;;;;24.89;53.59;99565.72;5031242;28;20057;-64
2023/08/03 08:33:03;;;;;;;0.63;0.38;;;;;;;24.89;53.31;99570.38;5015851;28;20042;-64
2023/08/03 08:35:28;;;;;;;2.90;0.50;;;;;;;24.89;53.09;99578.59;5014656;28;20034;-64
2023/08/03 08:37:54;;;;;;;4.68;0.50;;;;;;;24.85;53.25;99582.91;5031177;28;20050;-65
2023/08/03 08:40:19;;;;;;;4.35;0.95;;;;;;;24.88;52.85;99594.19;5014624;28;20049;-65
2023/08/03 08:42:51;;;;;;;1.38;0.70;;;;;;;24.92;53.05;99588.22;5014482;28;20116;-64
2023/08/03 08:45:17;;;;;;;1.63;0.93;;;;;;;25.17;52.14;99597.63;5014545;28;20026;-65
2023/08/03 08:47:43;;;;;;;2.17;0.63;;;;;;;25.21;52.69;99596.00;5014527;28;20038;-65
2023/08/03 08:50:09;;;;;;;2.65;0.70;;;;;;;25.19;52.56;99589.97;5015657;28;20030;-64
2023/08/03 08:52:35;;;;;;;2.80;1.20;;;;;;;25.33;52.61;99601.38;5030865;28;20125;-64
2023/08/03 08:55:19;;;;;;;0.75;0.30;;;;;;;25.57;52.31;99602.81;5030744;28;20045;-64
2023/08/03 08:57:44;;;;;;;4.38;0.93;;;;;;;25.76;51.60;99606.88;5030539;28;20559;-65
2023/08/03 09:00:11;;;;;;;4.85;0.90;;;;;;;25.99;51.32;99609.28;5015360;28;20125;-65
2023/08/03 09:02:37;;;;;;;3.20;0.55;;;;;;;26.12;51.67;99615.47;4994392;28;20050;-66
2023/08/03 09:05:21;;;;;;;2.65;0.70;;;;;;;26.17;51.17;99634.75;4995815;28;20018;-64
2023/08/03 09:08:16;;;;;;;2.97;0.80;;;;;;;26.11;50.89;99622.03;4978076;28;20042;-65
2023/08/03 09:10:49;;;;;;;5.38;1.17;;;;;;;26.03;50.96;99635.16;4993861;28;20034;-64
2023/08/03 09:13:45;;;;;;;2.17;0.50;;;;;;;26.04;51.28;99647.78;4995716;28;20038;-65
2023/08/03 09:16:24;;;;;;;2.25;0.60;;;;;;;26.05;51.44;99652.19;4994127;28;20039;-65
2023/08/03 09:18:49;;;;;;;1.50;0.63;;;;;;;26.05;50.69;99654.09;4995546;28;20043;-65
2023/08/03 09:21:16;;;;;;;1.38;0.50;;;;;;;26.10;50.81;99661.56;4994286;28;20041;-64
2023/08/03 09:23:41;;;;;;;2.88;0.80;;;;;;;26.14;50.62;99668.22;4994128;28;20054;-65
2023/08/03 09:26:07;;;;;;;2.53;0.60;;;;;;;26.18;50.66;99672.13;4994059;28;20058;-66
2023/08/03 09:28:40;;;;;;;2.05;1.38;;;;;;;26.22;51.00;99670.50;5010325;28;20564;-64
2023/08/03 09:31:06;;;;;;;2.08;0.65;;;;;;;26.38;49.95;99666.81;5010346;28;20039;-65
2023/08/03 09:33:33;;;;;;;2.28;0.50;;;;;;;26.46;50.36;99677.34;5010453;28;20091;-64
2023/08/03 09:36:02;;;;;;;1.70;0.70;;;;;;;26.53;49.95;99672.44;4977968;28;20108;-64
2023/08/03 09:38:28;;;;;;;4.07;1.17;;;;;;;26.74;49.31;99682.53;4995121;28;20383;-63
2023/08/03 09:40:53;;;;;;;2.58;0.73;;;;;;;27.16;48.98;99677.09;4995172;28;20033;-63
2023/08/03 09:43:20;;;;;;;3.90;0.80;;;;;;;27.46;48.56;99676.47;4995092;28;20170;-63
2023/08/03 09:45:45;;;;;;;2.72;1.20;;;;;;;27.81;48.21;99684.03;4993608;28;20034;-63
2023/08/03 09:48:12;;;;;;;6.38;0.77;;;;;;;28.18;47.77;99680.06;4993704;28;20057;-63
2023/08/03 09:50:39;;;;;;;3.38;0.65;;;;;;;28.51;47.31;99688.91;5010112;28;20058;-63
2023/08/03 09:53:10;;;;;;;2.97;0.90;;;;;;;28.78;46.75;99695.84;4993751;28;20034;-63
2023/08/03 09:55:42;;;;;;;4.22;0.85;;;;;;;28.97;46.64;99696.13;5009988;28;20403;-63
2023/08/03 09:58:11;;;;;;;6.05;0.80;;;;;;;29.14;46.71;99704.94;4994987;28;20574;-63
2023/08/03 10:00:37;;;;;;;2.65;0.70;;;;;;;29.26;46.86;99702.72;4993326;28;20046;-64
2023/08/03 10:03:10;;;;;;;5.90;0.80;;;;;;;29.35;46.46;99712.09;5010627;28;20033;-64
2023/08/03 10:05:50;;;;;;;3.92;0.77;;;;;;;29.53;46.12;99712.59;4999261;28;20023;-64
2023/08/03 10:08:26;;;;;;;3.05;1.00;;;;;;;29.24;46.88;99710.47;5015215;28;20042;-64
2023/08/03 10:10:55;;;;;;;2.58;1.23;;;;;;;28.91;47.24;99724.81;4998836;28;20034;-64
2023/08/03 10:13:22;;;;;;;3.00;0.65;;;;;;;28.65;46.90;99723.97;5012823;28;20045;-64
2023/08/03 10:15:48;;;;;;;3.92;1.73;;;;;;;28.44;46.91;99740.72;4993162;28;20510;-63
2023/08/03 10:18:13;;;;;;;2.08;0.75;;;;;;;28.27;47.76;99741.78;5009578;28;20053;-64
2023/08/03 10:20:39;;;;;;;6.88;1.05;;;;;;;28.10;47.49;99743.09;4992331;28;20030;-63
2023/08/03 10:23:11;;;;;;;1.27;0.70;;;;;;;28.09;46.80;99752.44;4993039;28;20472;-63
2023/08/03 10:25:57;;;;;;;3.50;1.25;;;;;;;28.29;46.92;99750.59;4994290;28;20062;-63
2023/08/03 10:28:37;;;;;;;1.35;0.82;;;;;;;28.68;45.69;99755.66;4994268;28;20061;-63
2023/08/03 10:31:11;;;;;;;2.85;1.15;;;;;;;28.95;45.48;99760.94;4994297;28;20037;-63
2023/08/03 10:33:49;;;;;;;2.72;0.80;;;;;;;28.83;46.27;99763.97;4994146;28;20414;-64
2023/08/03 10:36:34;;;;;;;3.25;0.50;;;;;;;28.71;46.17;99766.16;4992963;28;20034;-63
2023/08/03 10:38:59;;;;;;;8.63;1.73;;;;;;;28.58;46.32;99769.41;4994171;28;20471;-63
2023/08/03 10:41:36;;;;;;;4.60;0.75;;;;;;;28.45;46.62;99778.22;4993885;28;20510;-63
2023/08/03 10:44:14;;;;;;;7.32;0.95;;;;;;;28.35;45.89;99770.72;4993791;28;20034;-64
2023/08/03 10:46:50;;;;;;;3.05;0.80;;;;;;;28.25;46.54;99771.50;4992974;28;20038;-65
2023/08/03 10:49:18;;;;;;;3.30;0.85;;;;;;;28.16;46.07;99781.44;5009018;28;20498;-65
2023/08/03 10:51:48;;;;;;;3.17;0.82;;;;;;;28.00;46.54;99801.69;4998654;28;20042;-65
2023/08/03 10:54:14;;;;;;;3.65;0.80;;;;;;;27.80;46.98;99809.03;4994442;28;20036;-64
2023/08/03 10:56:39;;;;;;;1.10;0.47;;;;;;;27.65;47.00;99812.50;5009438;28;20410;-65
2023/08/03 10:59:05;;;;;;;1.50;0.43;;;;;;;27.60;46.74;99806.97;4992529;28;20035;-65
2023/08/03 11:01:31;;;;;;;2.72;0.52;;;;;;;27.57;47.08;99810.25;4993181;28;20030;-65
2023/08/03 11:03:58;;;;;;;1.50;0.60;;;;;;;27.57;47.28;99815.75;4993504;28;20046;-65
2023/08/03 11:06:24;;;;;;;1.83;0.40;;;;;;;27.51;46.47;99820.41;5008573;28;20053;-65
2023/08/03 11:08:50;;;;;;;2.13;0.50;;;;;;;27.44;47.29;99816.22;4992516;28;20093;-65
2023/08/03 11:11:21;;;;;;;1.58;0.40;;;;;;;27.47;47.34;99816.50;5008845;28;20455;-65
2023/08/03 11:13:48;;;;;;;3.80;0.40;;;;;;;27.63;47.10;99815.53;4992393;28;20038;-65
2023/08/03 11:16:20;;;;;;;1.50;0.80;;;;;;;27.63;46.67;99825.72;4992491;28;20384;-65
2023/08/03 11:18:46;;;;;;;2.65;0.80;;;;;;;27.63;46.43;99826.53;5008618;28;20034;-65
2023/08/03 11:21:12;;;;;;;1.65;0.57;;;;;;;27.58;47.01;99831.19;4993723;28;20080;-65
2023/08/03 11:23:37;;;;;;;5.57;1.42;;;;;;;27.44;46.53;99844.56;5008504;28;20410;-64
2023/08/03 11:26:06;;;;;;;1.75;0.50;;;;;;;27.33;46.63;99847.47;4992120;28;20117;-65
2023/08/03 11:28:41;;;;;;;2.83;0.50;;;;;;;27.23;46.37;99852.84;4992178;28;20093;-65
2023/08/03 11:31:20;;;;;;;2.75;0.90;;;;;;;27.11;46.32;99856.59;5008336;28;20122;-65
2023/08/03 11:33:53;;;;;;;4.38;0.70;;;;;;;26.99;46.93;99858.72;4995511;28;20030;-65